Time;durP1;ratioP1;P1;durP2;ratioP2;P2;SDS_P1;SDS_P2;PMS_P1;PMS_P2;Temp;Humidity;BMP_temperature;BMP_pressure;BME280_temperature;BME280_humidity;BME280_pressure;Samples;Min_cycle;Max_cycle;Signal;HPM_P1;HPM_P2
2022/09/28 00:02:13;;;;;;;1.67;1.58;;;8.50;99.90;;;;;;6234187;22;20240;-77
2022/09/28 00:04:41;;;;;;;1.83;1.50;;;8.50;99.90;;;;;;6213061;22;20593;-78
2022/09/28 00:07:09;;;;;;;1.50;1.40;;;8.50;99.90;;;;;;6236257;22;20712;-77
2022/09/28 00:09:35;;;;;;;2.78;1.60;;;8.60;99.90;;;;;;6238432;22;20296;-77
2022/09/28 00:12:02;;;;;;;2.80;1.50;;;8.50;99.90;;;;;;6243736;22;20190;-78
2022/09/28 00:14:31;;;;;;;1.95;1.35;;;8.60;99.90;;;;;;6239546;23;20193;-77
2022/09/28 00:16:58;;;;;;;3.15;1.52;;;8.60;99.90;;;;;;6234995;22;20260;-77
2022/09/28 00:19:25;;;;;;;3.60;1.73;;;8.60;99.90;;;;;;6239185;22;20218;-77
2022/09/28 00:21:53;;;;;;;3.58;1.73;;;8.80;99.90;;;;;;6238021;23;20212;-77
2022/09/28 00:24:20;;;;;;;2.20;1.67;;;8.60;99.90;;;;;;6237291;22;20193;-78
2022/09/28 00:26:50;;;;;;;1.92;1.73;;;8.60;99.90;;;;;;6242286;22;20224;-77
2022/09/28 00:29:21;;;;;;;2.35;1.60;;;8.60;99.90;;;;;;6246280;22;20216;-77
2022/09/28 00:31:51;;;;;;;2.08;1.88;;;8.60;99.90;;;;;;6236267;22;20199;-78
2022/09/28 00:34:18;;;;;;;2.05;1.85;;;8.60;99.90;;;;;;6237523;22;20208;-78
2022/09/28 00:36:46;;;;;;;1.40;1.30;;;8.60;99.90;;;;;;6238024;22;20220;-78
2022/09/28 00:39:16;;;;;;;1.70;1.60;;;8.60;99.90;;;;;;6235925;22;20347;-77
2022/09/28 00:41:44;;;;;;;1.67;1.58;;;8.70;99.90;;;;;;6246933;22;20658;-77
2022/09/28 00:44:46;;;;;;;1.42;1.30;;;8.70;99.90;;;;;;6235574;22;20189;-77
2022/09/28 00:47:21;;;;;;;2.38;1.25;;;8.70;99.90;;;;;;6228802;22;20193;-77
2022/09/28 00:49:53;;;;;;;1.40;1.30;;;8.70;99.90;;;;;;6235284;22;20188;-78
2022/09/28 00:52:25;;;;;;;1.35;1.25;;;8.80;99.90;;;;;;6249598;22;20193;-77
2022/09/28 00:54:54;;;;;;;2.65;1.55;;;8.80;99.90;;;;;;6234240;22;20299;-77
2022/09/28 00:57:23;;;;;;;3.20;1.40;;;8.80;99.90;;;;;;6250457;22;20720;-77
2022/09/28 00:59:51;;;;;;;1.65;1.55;;;8.80;99.90;;;;;;6239716;23;20274;-78
2022/09/28 01:02:19;;;;;;;2.08;1.52;;;8.90;99.90;;;;;;6236304;23;20252;-78
2022/09/28 01:04:47;;;;;;;1.83;1.27;;;8.90;99.90;;;;;;6236909;22;20362;-78
2022/09/28 01:07:17;;;;;;;1.75;1.48;;;8.90;99.90;;;;;;6258086;22;20189;-78
2022/09/28 01:09:45;;;;;;;2.13;1.40;;;8.90;99.90;;;;;;6215788;22;20299;-79
2022/09/28 01:12:14;;;;;;;1.85;1.50;;;8.90;99.90;;;;;;6233666;22;20214;-77
2022/09/28 01:14:42;;;;;;;2.38;1.92;;;8.90;99.90;;;;;;6239477;22;20257;-77
2022/09/28 01:17:15;;;;;;;2.10;1.90;;;8.90;99.90;;;;;;6237730;22;20264;-77
2022/09/28 01:20:06;;;;;;;2.60;1.80;;;8.90;99.90;;;;;;6239144;22;20233;-77
2022/09/28 01:23:11;;;;;;;2.20;1.50;;;8.80;99.90;;;;;;6239090;22;20213;-78
2022/09/28 01:25:45;;;;;;;2.17;1.98;;;8.80;99.90;;;;;;6235536;22;20189;-77
2022/09/28 01:28:15;;;;;;;2.45;1.52;;;8.80;99.90;;;;;;6238462;22;20214;-77
2022/09/28 01:30:47;;;;;;;2.97;2.00;;;8.80;99.90;;;;;;6236111;22;20232;-77
2022/09/28 01:33:22;;;;;;;2.42;1.70;;;8.90;99.90;;;;;;6238112;22;20592;-78
2022/09/28 01:35:55;;;;;;;2.05;1.90;;;8.90;99.90;;;;;;6234564;22;20195;-78
2022/09/28 01:38:26;;;;;;;3.28;2.00;;;8.90;99.90;;;;;;6239134;22;20210;-77
2022/09/28 01:40:54;;;;;;;2.10;1.90;;;8.90;99.90;;;;;;6251765;22;20189;-77
2022/09/28 01:43:25;;;;;;;1.70;1.60;;;8.90;99.90;;;;;;6242433;22;20223;-77
2022/09/28 01:45:56;;;;;;;2.50;1.92;;;8.90;99.90;;;;;;6234614;22;20193;-77
2022/09/28 01:48:27;;;;;;;2.40;2.10;;;8.90;99.90;;;;;;6241129;22;20228;-77
2022/09/28 01:50:59;;;;;;;2.60;1.90;;;8.90;99.90;;;;;;6237014;22;20593;-77
2022/09/28 01:53:34;;;;;;;2.65;1.58;;;9.00;99.90;;;;;;6239984;23;20216;-77
2022/09/28 01:56:11;;;;;;;1.73;1.38;;;8.90;99.90;;;;;;6235559;22;20208;-77
2022/09/28 01:58:44;;;;;;;1.85;1.60;;;9.00;99.90;;;;;;6235560;22;20224;-77
2022/09/28 02:01:16;;;;;;;2.58;1.95;;;9.00;99.90;;;;;;6236699;22;20288;-77
2022/09/28 02:03:48;;;;;;;4.25;1.98;;;9.00;99.90;;;;;;6231939;22;20190;-77
2022/09/28 02:06:20;;;;;;;3.45;1.90;;;9.00;99.90;;;;;;6227068;22;20227;-77
2022/09/28 02:08:52;;;;;;;2.33;1.88;;;9.00;99.90;;;;;;6240415;22;20225;-78
2022/09/28 02:11:20;;;;;;;2.22;1.45;;;9.00;99.90;;;;;;6240285;22;20189;-77
2022/09/28 02:13:53;;;;;;;1.88;1.45;;;9.10;99.90;;;;;;6236678;22;20280;-77
2022/09/28 02:16:25;;;;;;;4.13;1.73;;;9.10;99.90;;;;;;6236199;22;20193;-77
2022/09/28 02:18:52;;;;;;;6.15;1.77;;;9.20;99.90;;;;;;6232730;22;20240;-78
2022/09/28 02:21:25;;;;;;;4.85;1.95;;;9.30;99.90;;;;;;6237619;22;20221;-77
2022/09/28 02:23:57;;;;;;;3.10;1.40;;;9.30;99.90;;;;;;6237387;22;20204;-78
2022/09/28 02:26:30;;;;;;;2.40;1.52;;;9.40;99.90;;;;;;6237870;22;20196;-77
2022/09/28 02:28:59;;;;;;;3.33;1.70;;;9.40;99.90;;;;;;6238511;22;20239;-78
2022/09/28 02:31:26;;;;;;;2.95;1.48;;;9.40;99.90;;;;;;6242805;22;20193;-78
2022/09/28 02:33:56;;;;;;;2.65;1.40;;;9.50;99.90;;;;;;6235535;22;20207;-78
2022/09/28 02:36:26;;;;;;;2.78;1.50;;;9.50;99.90;;;;;;6238785;22;20288;-78
2022/09/28 02:38:53;;;;;;;3.70;1.70;;;9.50;99.90;;;;;;6246416;22;20235;-77
2022/09/28 02:41:30;;;;;;;3.80;1.52;;;9.60;99.90;;;;;;6239902;22;20188;-78
2022/09/28 02:44:07;;;;;;;3.78;1.50;;;9.60;99.90;;;;;;6236274;22;20217;-78
2022/09/28 02:46:42;;;;;;;1.77;1.52;;;9.60;99.90;;;;;;6238187;22;20221;-77
2022/09/28 02:49:20;;;;;;;3.33;1.88;;;9.70;99.90;;;;;;6237603;22;20208;-78
2022/09/28 02:52:07;;;;;;;3.55;1.75;;;9.70;99.90;;;;;;6236628;22;20279;-78
2022/09/28 02:54:59;;;;;;;2.53;1.50;;;9.70;99.90;;;;;;6235282;22;20190;-78
2022/09/28 02:57:37;;;;;;;2.70;1.70;;;9.70;99.90;;;;;;6246816;22;20485;-78
2022/09/28 03:00:10;;;;;;;3.70;1.70;;;9.70;99.90;;;;;;6233040;22;20553;-78
2022/09/28 03:02:45;;;;;;;3.20;1.60;;;9.70;99.90;;;;;;6234798;22;20647;-78
2022/09/28 03:05:16;;;;;;;3.63;1.70;;;9.70;99.90;;;;;;6233015;22;20190;-78
2022/09/28 03:07:50;;;;;;;3.20;1.83;;;9.70;99.90;;;;;;6237285;22;20212;-78
2022/09/28 03:10:25;;;;;;;3.25;1.77;;;9.70;99.90;;;;;;6237442;22;20198;-78
2022/09/28 03:12:54;;;;;;;3.28;1.50;;;9.70;99.90;;;;;;6243520;22;20581;-78
2022/09/28 03:15:25;;;;;;;4.05;1.80;;;9.70;99.90;;;;;;6233025;22;20197;-78
2022/09/28 03:17:53;;;;;;;2.15;1.83;;;9.70;99.90;;;;;;6244532;22;20260;-77
2022/09/28 03:20:20;;;;;;;6.65;2.10;;;9.70;99.90;;;;;;6235681;22;20550;-77
2022/09/28 03:22:47;;;;;;;4.60;1.85;;;9.80;99.90;;;;;;6234398;22;20265;-77
2022/09/28 03:25:15;;;;;;;4.60;2.20;;;9.80;99.90;;;;;;6236465;22;20217;-77
2022/09/28 03:27:42;;;;;;;3.45;1.60;;;9.80;99.90;;;;;;6236519;22;20238;-78
2022/09/28 03:30:11;;;;;;;5.30;1.80;;;9.80;99.90;;;;;;6239283;23;20218;-77
2022/09/28 03:32:39;;;;;;;6.05;1.75;;;9.80;99.90;;;;;;6235879;22;20630;-77
2022/09/28 03:35:08;;;;;;;5.40;1.77;;;9.80;99.90;;;;;;6236053;22;20187;-78
2022/09/28 03:37:35;;;;;;;3.17;1.40;;;9.80;99.90;;;;;;6238812;22;20277;-79
2022/09/28 03:40:03;;;;;;;1.30;0.80;;;9.80;99.90;;;;;;6236947;23;20265;-78
2022/09/28 03:42:30;;;;;;;2.65;0.90;;;9.80;99.90;;;;;;6252223;22;20227;-77
2022/09/28 03:44:57;;;;;;;1.60;0.80;;;9.70;99.90;;;;;;6235483;22;20215;-78
2022/09/28 03:47:24;;;;;;;1.98;0.80;;;9.60;99.90;;;;;;6230778;22;20538;-78
2022/09/28 03:49:52;;;;;;;1.55;0.70;;;9.60;99.90;;;;;;6236777;22;20230;-78
2022/09/28 03:52:19;;;;;;;2.03;0.80;;;9.50;99.90;;;;;;6241215;22;20226;-78
2022/09/28 03:54:46;;;;;;;2.60;0.85;;;9.50;99.90;;;;;;6235985;22;20218;-78
2022/09/28 03:57:13;;;;;;;3.33;0.85;;;9.60;99.90;;;;;;6240135;23;20257;-79
2022/09/28 03:59:40;;;;;;;2.13;1.00;;;9.50;99.90;;;;;;6245549;22;20195;-78
2022/09/28 04:02:08;;;;;;;2.42;1.05;;;9.50;99.90;;;;;;6228390;22;20294;-79
2022/09/28 04:04:35;;;;;;;1.83;1.13;;;9.50;99.90;;;;;;6230092;22;20199;-77
2022/09/28 04:07:03;;;;;;;2.58;1.20;;;9.50;99.90;;;;;;6235913;22;20269;-79
2022/09/28 04:09:30;;;;;;;2.72;1.38;;;9.50;99.90;;;;;;6234609;23;20196;-78
2022/09/28 04:11:57;;;;;;;4.10;1.45;;;9.50;99.90;;;;;;6241864;22;20333;-77
2022/09/28 04:14:24;;;;;;;1.73;0.95;;;9.50;99.90;;;;;;6239614;22;20216;-78
2022/09/28 04:16:53;;;;;;;3.67;1.55;;;9.50;99.90;;;;;;6245282;22;20195;-78
2022/09/28 04:19:20;;;;;;;1.63;1.10;;;9.50;99.90;;;;;;6238452;22;20191;-78
2022/09/28 04:21:49;;;;;;;2.60;1.13;;;9.50;99.90;;;;;;6254366;22;20249;-76
2022/09/28 04:24:19;;;;;;;1.90;1.17;;;9.50;99.90;;;;;;6237226;23;20187;-79
2022/09/28 04:26:46;;;;;;;3.10;1.33;;;9.50;99.90;;;;;;6230185;22;20195;-78
2022/09/28 04:29:15;;;;;;;3.35;1.20;;;9.50;99.90;;;;;;6227971;22;20729;-79
2022/09/28 04:31:44;;;;;;;2.50;1.00;;;9.50;99.90;;;;;;6225918;22;20187;-80
2022/09/28 04:34:13;;;;;;;3.35;1.42;;;9.50;99.90;;;;;;6229860;22;20264;-78
2022/09/28 04:36:40;;;;;;;2.47;1.00;;;9.40;99.90;;;;;;6232231;22;20221;-80
2022/09/28 04:39:08;;;;;;;1.63;1.00;;;9.50;99.90;;;;;;6238541;22;20597;-80
2022/09/28 04:41:36;;;;;;;3.08;1.20;;;9.50;99.90;;;;;;6230811;22;20661;-79
2022/09/28 04:44:04;;;;;;;3.40;1.13;;;9.50;99.90;;;;;;6251921;22;20846;-80
2022/09/28 04:46:31;;;;;;;5.22;1.30;;;9.50;99.90;;;;;;6235761;22;20178;-80
2022/09/28 04:48:58;;;;;;;1.55;1.00;;;9.50;99.90;;;;;;6230581;23;20264;-80
2022/09/28 04:51:25;;;;;;;3.15;1.35;;;9.50;99.90;;;;;;6235722;23;20689;-80
2022/09/28 04:53:52;;;;;;;1.90;1.00;;;9.50;99.90;;;;;;6236984;22;22139;-80
2022/09/28 04:56:20;;;;;;;1.67;1.33;;;9.50;99.90;;;;;;6232535;22;20222;-80
2022/09/28 04:58:48;;;;;;;1.90;1.20;;;9.50;99.90;;;;;;6232127;22;20201;-79
2022/09/28 05:01:18;;;;;;;3.30;1.10;;;9.50;99.90;;;;;;6226002;22;20262;-77
2022/09/28 05:03:45;;;;;;;2.60;1.42;;;9.50;99.90;;;;;;6234849;22;20218;-79
2022/09/28 05:06:14;;;;;;;1.45;1.00;;;9.50;99.90;;;;;;6239043;23;20262;-80
2022/09/28 05:08:45;;;;;;;1.40;1.20;;;9.40;99.90;;;;;;6240619;22;20203;-78
2022/09/28 05:11:13;;;;;;;1.85;1.20;;;9.40;99.90;;;;;;6238269;22;20186;-79
2022/09/28 05:13:42;;;;;;;2.95;1.52;;;9.40;99.90;;;;;;6236607;23;20606;-79
2022/09/28 05:16:12;;;;;;;3.80;1.30;;;9.40;99.90;;;;;;6237516;23;20191;-80
2022/09/28 05:18:39;;;;;;;2.50;1.23;;;9.40;99.90;;;;;;6236203;22;20247;-79
2022/09/28 05:21:10;;;;;;;2.10;1.33;;;9.40;99.90;;;;;;6247708;22;20271;-79
2022/09/28 05:23:37;;;;;;;1.10;1.00;;;9.30;99.90;;;;;;6234581;22;20207;-79
2022/09/28 05:26:04;;;;;;;3.22;1.27;;;9.30;99.90;;;;;;6239586;22;20192;-79
2022/09/28 05:28:32;;;;;;;2.45;1.20;;;9.30;99.90;;;;;;6238458;23;20198;-80
2022/09/28 05:31:00;;;;;;;3.35;1.65;;;9.30;99.90;;;;;;6219814;23;20245;-80
2022/09/28 05:33:29;;;;;;;1.55;1.08;;;9.40;99.90;;;;;;6237694;23;20267;-79
2022/09/28 05:35:56;;;;;;;2.58;1.50;;;9.30;99.90;;;;;;6238556;22;20195;-79
2022/09/28 05:38:24;;;;;;;3.05;1.33;;;9.30;99.90;;;;;;6233144;22;20276;-79
2022/09/28 05:40:51;;;;;;;1.52;1.40;;;9.30;99.90;;;;;;6234025;22;20241;-80
2022/09/28 05:43:18;;;;;;;1.65;1.40;;;9.30;99.90;;;;;;6237389;23;20280;-80
2022/09/28 05:45:45;;;;;;;1.75;1.45;;;9.30;99.90;;;;;;6238079;22;20549;-80
2022/09/28 05:48:12;;;;;;;3.40;1.42;;;9.30;99.90;;;;;;6239873;22;20673;-79
2022/09/28 05:50:40;;;;;;;2.38;1.55;;;9.40;99.90;;;;;;6238587;23;20184;-80
2022/09/28 05:53:09;;;;;;;2.30;1.60;;;9.40;99.90;;;;;;6238709;22;20190;-77
2022/09/28 05:55:38;;;;;;;2.58;1.40;;;9.40;99.90;;;;;;6237666;23;20294;-80
2022/09/28 05:58:06;;;;;;;2.45;1.63;;;9.30;99.90;;;;;;6236816;22;20207;-80
2022/09/28 06:00:35;;;;;;;3.05;2.05;;;9.30;99.90;;;;;;6239361;22;20221;-80
2022/09/28 06:03:04;;;;;;;5.68;2.72;;;9.20;99.90;;;;;;6240991;22;20212;-80
2022/09/28 06:05:31;;;;;;;5.95;2.75;;;9.20;99.90;;;;;;6240835;23;20187;-81
2022/09/28 06:07:59;;;;;;;3.50;1.92;;;9.20;99.90;;;;;;6233891;22;20207;-81
2022/09/28 06:10:28;;;;;;;6.30;2.05;;;9.20;99.90;;;;;;6242003;22;20242;-80
2022/09/28 06:12:56;;;;;;;2.72;2.25;;;9.20;99.90;;;;;;6240042;22;20207;-80
2022/09/28 06:15:24;;;;;;;3.03;2.15;;;9.20;99.90;;;;;;6242442;22;20313;-79
2022/09/28 06:17:56;;;;;;;3.70;2.10;;;9.20;99.90;;;;;;6259936;22;20233;-80
2022/09/28 06:20:23;;;;;;;3.35;2.22;;;9.20;99.90;;;;;;6244636;22;20188;-81
2022/09/28 06:22:51;;;;;;;2.65;2.45;;;9.20;99.90;;;;;;6247712;22;20220;-81
2022/09/28 06:25:20;;;;;;;2.47;2.05;;;9.30;99.90;;;;;;6238003;22;20216;-81
2022/09/28 06:27:54;;;;;;;3.92;2.45;;;9.30;99.90;;;;;;6237569;22;20722;-80
2022/09/28 06:30:22;;;;;;;3.50;2.40;;;9.40;99.90;;;;;;6239441;23;20187;-80
2022/09/28 06:32:52;;;;;;;2.72;2.40;;;9.40;99.90;;;;;;6254742;22;20204;-80
2022/09/28 06:35:20;;;;;;;3.50;3.17;;;9.50;99.90;;;;;;6269699;22;20322;-80
2022/09/28 06:37:47;;;;;;;4.70;2.83;;;9.50;99.90;;;;;;6249068;22;20212;-81
2022/09/28 06:40:14;;;;;;;5.78;3.40;;;9.50;99.90;;;;;;6221551;22;20207;-80
2022/09/28 06:42:43;;;;;;;4.03;2.97;;;9.50;99.90;;;;;;6236676;23;20233;-80
2022/09/28 06:45:10;;;;;;;3.38;3.05;;;9.60;99.90;;;;;;6237838;23;20218;-81
2022/09/28 06:47:37;;;;;;;3.63;2.80;;;9.60;99.90;;;;;;6251792;22;20214;-80
2022/09/28 06:50:11;;;;;;;5.10;4.07;;;9.50;99.90;;;;;;6249598;22;22213;-80
2022/09/28 06:52:38;;;;;;;4.43;3.83;;;9.60;99.90;;;;;;6231319;22;20187;-80
2022/09/28 06:55:06;;;;;;;4.50;3.42;;;9.60;99.90;;;;;;6232879;23;20190;-80
2022/09/28 06:57:33;;;;;;;3.53;3.00;;;9.60;99.90;;;;;;6239338;22;20210;-80
2022/09/28 07:00:02;;;;;;;3.95;3.30;;;9.70;99.90;;;;;;6237999;23;20627;-80
2022/09/28 07:02:30;;;;;;;4.15;2.75;;;9.70;99.90;;;;;;6251140;22;20266;-80
2022/09/28 07:04:57;;;;;;;4.18;3.15;;;9.70;99.90;;;;;;6254487;22;20253;-81
2022/09/28 07:07:25;;;;;;;4.07;3.00;;;9.80;99.90;;;;;;6238426;22;20588;-80
2022/09/28 07:09:56;;;;;;;4.05;2.83;;;9.80;99.90;;;;;;6224986;23;20549;-80
2022/09/28 07:12:25;;;;;;;4.82;3.50;;;9.90;99.90;;;;;;6234382;22;20258;-81
2022/09/28 07:14:55;;;;;;;3.53;3.20;;;9.90;99.90;;;;;;6222723;23;20276;-80
2022/09/28 07:17:23;;;;;;;4.35;3.33;;;9.90;99.90;;;;;;6222106;22;20197;-80
2022/09/28 07:19:52;;;;;;;3.58;3.25;;;10.00;99.90;;;;;;6245433;22;20180;-80
2022/09/28 07:22:19;;;;;;;6.07;3.33;;;10.10;99.90;;;;;;6247952;22;20194;-80
2022/09/28 07:24:47;;;;;;;4.18;3.78;;;10.10;99.90;;;;;;6237178;22;20662;-80
2022/09/28 07:27:15;;;;;;;5.30;3.55;;;10.10;99.90;;;;;;6238668;23;20689;-81
2022/09/28 07:29:42;;;;;;;4.07;3.03;;;10.20;99.90;;;;;;6236259;22;20252;-80
2022/09/28 07:32:09;;;;;;;4.95;3.72;;;10.20;99.90;;;;;;6234877;22;20188;-80
2022/09/28 07:34:42;;;;;;;4.32;3.75;;;10.20;99.90;;;;;;6223676;23;20219;-81
2022/09/28 07:37:09;;;;;;;5.47;3.83;;;10.30;99.90;;;;;;6251631;22;20248;-80
2022/09/28 07:41:10;;;;;;;6.18;3.60;;;10.30;99.90;;;;;;6253060;22;20670;-80
2022/09/28 07:42:23;;;;;;;3.95;3.30;;;10.40;99.90;;;;;;6257135;22;20613;-80
2022/09/28 07:44:51;;;;;;;4.82;3.30;;;10.40;99.90;;;;;;6237381;22;20319;-80
2022/09/28 07:47:17;;;;;;;3.15;2.85;;;10.40;99.90;;;;;;6239533;22;20208;-80
2022/09/28 07:49:49;;;;;;;4.50;3.33;;;10.50;99.90;;;;;;6236507;22;20181;-81
2022/09/28 07:52:17;;;;;;;3.95;3.08;;;10.50;99.90;;;;;;6242595;22;20260;-80
2022/09/28 07:54:44;;;;;;;6.25;3.20;;;10.60;99.90;;;;;;6248158;22;20191;-80
2022/09/28 07:57:11;;;;;;;3.92;3.40;;;10.60;99.90;;;;;;6239032;22;20736;-80
2022/09/28 07:59:39;;;;;;;4.45;2.85;;;10.60;99.90;;;;;;6235847;22;20268;-80
2022/09/28 08:02:06;;;;;;;5.78;3.00;;;10.60;99.90;;;;;;6254789;22;20210;-80
2022/09/28 08:04:33;;;;;;;7.28;3.83;;;10.60;99.90;;;;;;6250224;22;20255;-80
2022/09/28 08:07:01;;;;;;;5.20;3.40;;;10.70;99.90;;;;;;6244385;22;20207;-80
2022/09/28 08:09:29;;;;;;;7.20;3.40;;;10.70;99.90;;;;;;6236419;23;20184;-80
2022/09/28 08:11:58;;;;;;;5.40;3.50;;;10.80;99.90;;;;;;6250954;22;20191;-80
2022/09/28 08:14:25;;;;;;;3.63;3.25;;;10.80;99.90;;;;;;6240441;22;20204;-81
2022/09/28 08:16:53;;;;;;;3.42;2.67;;;10.90;99.90;;;;;;6249187;22;20208;-80
2022/09/28 08:19:20;;;;;;;3.85;2.60;;;10.90;99.90;;;;;;6263727;22;20271;-81
2022/09/28 08:21:46;;;;;;;4.75;2.70;;;11.00;99.90;;;;;;6245923;22;20617;-81
2022/09/28 08:24:16;;;;;;;4.20;2.72;;;11.10;99.90;;;;;;6236858;23;20254;-81
2022/09/28 08:26:44;;;;;;;4.07;2.90;;;11.20;99.90;;;;;;6238730;22;20294;-81
2022/09/28 08:29:11;;;;;;;4.82;2.85;;;11.20;99.90;;;;;;6236999;23;20271;-80
2022/09/28 08:31:38;;;;;;;3.60;2.85;;;11.20;99.90;;;;;;6247556;22;20272;-81
2022/09/28 08:34:05;;;;;;;4.78;2.80;;;11.20;99.90;;;;;;6267073;22;20242;-80
2022/09/28 08:36:33;;;;;;;3.58;3.22;;;11.20;99.90;;;;;;6235873;22;20242;-81
2022/09/28 08:39:00;;;;;;;5.40;2.72;;;11.20;99.90;;;;;;6239619;22;20177;-81
2022/09/28 08:41:37;;;;;;;3.75;2.95;;;11.10;99.90;;;;;;6240792;22;20537;-80
2022/09/28 08:44:14;;;;;;;2.90;2.50;;;11.10;99.90;;;;;;6237957;23;20427;-81
2022/09/28 08:46:44;;;;;;;3.70;2.70;;;11.00;99.90;;;;;;6239198;22;20220;-80
2022/09/28 08:49:16;;;;;;;3.60;2.60;;;11.00;99.90;;;;;;6237462;23;20598;-81
2022/09/28 08:51:49;;;;;;;2.95;2.67;;;11.00;99.90;;;;;;6237481;23;20211;-80
2022/09/28 08:54:28;;;;;;;3.85;2.40;;;11.10;99.90;;;;;;6238133;23;20226;-80
2022/09/28 08:57:02;;;;;;;2.97;2.67;;;11.20;99.90;;;;;;6238022;22;20239;-80
2022/09/28 08:59:36;;;;;;;3.53;2.70;;;11.20;99.90;;;;;;6237914;23;20528;-80
2022/09/28 09:02:04;;;;;;;5.75;2.85;;;11.40;99.90;;;;;;6240172;22;20271;-80
2022/09/28 09:04:33;;;;;;;3.90;2.72;;;11.50;99.90;;;;;;6228922;22;20209;-80
2022/09/28 09:07:25;;;;;;;3.90;2.45;;;11.70;99.90;;;;;;6237532;23;20288;-80
2022/09/28 09:10:02;;;;;;;4.85;2.55;;;11.80;99.90;;;;;;6235736;22;20263;-80
2022/09/28 09:12:41;;;;;;;4.20;2.28;;;11.90;99.90;;;;;;6243221;22;20539;-80
2022/09/28 09:15:29;;;;;;;5.00;2.40;;;11.80;99.90;;;;;;6254305;22;20188;-80
2022/09/28 09:18:14;;;;;;;4.60;3.00;;;11.80;99.90;;;;;;6227987;23;20209;-80
2022/09/28 09:20:48;;;;;;;2.95;2.35;;;11.80;99.90;;;;;;6210416;23;20185;-80
2022/09/28 09:23:19;;;;;;;4.28;2.50;;;11.90;99.90;;;;;;6242006;22;20180;-80
2022/09/28 09:25:53;;;;;;;3.53;2.10;;;11.80;99.90;;;;;;6246626;22;20208;-81
2022/09/28 09:29:02;;;;;;;2.53;2.30;;;11.80;99.90;;;;;;6245673;22;20634;-80
2022/09/28 09:31:41;;;;;;;2.95;2.50;;;11.90;99.90;;;;;;6232688;22;20191;-80
2022/09/28 09:34:26;;;;;;;2.72;2.08;;;12.10;99.90;;;;;;6263843;22;20190;-81
2022/09/28 09:37:09;;;;;;;4.75;2.60;;;12.20;99.90;;;;;;6221080;22;20291;-80
2022/09/28 09:39:49;;;;;;;5.75;2.80;;;12.30;99.90;;;;;;6222022;23;20185;-80
2022/09/28 09:42:32;;;;;;;3.15;2.65;;;12.40;99.90;;;;;;6240130;22;20192;-80
2022/09/28 09:45:15;;;;;;;4.00;1.90;;;12.50;99.90;;;;;;6256843;22;20212;-79
2022/09/28 09:47:49;;;;;;;3.45;2.25;;;12.60;99.90;;;;;;6242102;22;20205;-79
2022/09/28 09:50:28;;;;;;;2.60;2.22;;;12.70;99.90;;;;;;6238873;23;20182;-79
2022/09/28 09:52:59;;;;;;;3.30;1.85;;;12.80;99.90;;;;;;6226225;22;20184;-79
2022/09/28 09:55:31;;;;;;;5.07;2.00;;;12.90;99.90;;;;;;6238464;23;20264;-78
2022/09/28 09:58:08;;;;;;;3.70;2.23;;;13.10;99.90;;;;;;6238291;23;20187;-79
2022/09/28 10:00:39;;;;;;;3.43;1.97;;;13.30;99.90;;;;;;6242576;22;20989;-79
2022/09/28 10:03:10;;;;;;;3.40;1.97;;;13.60;99.90;;;;;;6253886;22;20448;-79
2022/09/28 10:05:38;;;;;;;5.00;2.43;;;13.80;99.90;;;;;;6238678;22;20543;-80
2022/09/28 10:08:13;;;;;;;3.17;1.90;;;13.80;99.90;;;;;;6234893;22;20434;-79
2022/09/28 10:10:48;;;;;;;3.73;2.00;;;13.70;99.90;;;;;;6237872;22;20434;-80
2022/09/28 10:13:15;;;;;;;2.93;2.03;;;13.80;99.90;;;;;;6233842;22;20426;-79
2022/09/28 10:15:46;;;;;;;3.43;2.30;;;13.70;99.90;;;;;;6239346;22;21055;-79
2022/09/28 10:18:15;;;;;;;2.70;2.30;;;13.70;99.90;;;;;;6238514;23;20759;-79
2022/09/28 10:20:44;;;;;;;3.88;2.85;;;13.70;99.90;;;;;;6239256;22;20517;-78
2022/09/28 10:23:21;;;;;;;3.77;2.27;;;13.50;99.90;;;;;;6248712;22;20185;-79
2022/09/28 10:25:52;;;;;;;3.23;2.30;;;13.50;99.90;;;;;;6231333;22;20554;-79
2022/09/28 10:28:25;;;;;;;2.57;2.00;;;13.70;99.90;;;;;;6235783;22;20442;-79
2022/09/28 10:30:53;;;;;;;2.40;2.20;;;13.90;99.90;;;;;;6239119;23;20433;-79
2022/09/28 10:33:32;;;;;;;3.03;2.00;;;14.10;99.90;;;;;;6253842;22;20874;-79
2022/09/28 10:36:01;;;;;;;5.20;2.20;;;14.00;99.90;;;;;;6237759;22;20770;-81
2022/09/28 10:38:29;;;;;;;2.17;1.70;;;14.10;99.90;;;;;;6238242;22;20443;-80
2022/09/28 10:40:59;;;;;;;4.63;2.10;;;14.00;99.90;;;;;;6238615;22;20512;-80
2022/09/28 10:43:29;;;;;;;4.20;2.67;;;13.90;99.90;;;;;;6240785;22;21027;-80
2022/09/28 10:46:06;;;;;;;3.53;2.40;;;13.80;99.90;;;;;;6238453;23;20468;-79
2022/09/28 10:48:49;;;;;;;3.40;2.33;;;13.80;99.90;;;;;;6235049;22;20462;-80
2022/09/28 10:51:52;;;;;;;2.33;1.93;;;13.90;99.90;;;;;;6237626;23;20477;-79
2022/09/28 10:54:53;;;;;;;3.87;1.90;;;13.90;99.90;;;;;;6167687;23;20567;-80
2022/09/28 10:57:27;;;;;;;2.13;1.80;;;13.90;99.90;;;;;;6166169;23;20493;-80
2022/09/28 10:59:55;;;;;;;3.17;1.90;;;14.00;99.90;;;;;;6203028;22;20437;-80
2022/09/28 11:02:26;;;;;;;6.60;2.30;;;13.60;99.90;;;;;;6237274;22;20922;-80
2022/09/28 11:04:57;;;;;;;3.27;1.90;;;13.40;99.90;;;;;;6237906;22;20466;-79
2022/09/28 11:07:26;;;;;;;4.60;2.27;;;13.40;99.90;;;;;;6226359;22;20787;-78
2022/09/28 11:09:55;;;;;;;2.67;1.77;;;13.40;99.90;;;;;;6227204;23;20497;-78
2022/09/28 11:12:25;;;;;;;4.33;1.80;;;13.60;99.90;;;;;;6238417;22;20431;-79
2022/09/28 11:14:57;;;;;;;2.20;1.80;;;13.80;99.90;;;;;;6240769;22;20491;-79
2022/09/28 11:17:31;;;;;;;4.33;2.57;;;14.00;99.90;;;;;;6238546;23;20514;-79
2022/09/28 11:20:00;;;;;;;4.20;2.03;;;14.10;99.90;;;;;;6240321;23;20426;-79
2022/09/28 11:22:29;;;;;;;2.57;1.60;;;14.20;99.90;;;;;;6229802;22;20435;-81
2022/09/28 11:25:19;;;;;;;2.40;1.90;;;14.50;99.90;;;;;;6233411;22;20468;-83
2022/09/28 11:27:57;;;;;;;1.80;1.40;;;14.70;99.90;;;;;;6252237;22;20442;-82
2022/09/28 11:30:27;;;;;;;2.70;2.00;;;14.60;99.90;;;;;;6270419;22;20416;-81
2022/09/28 11:33:01;;;;;;;2.90;1.87;;;14.60;99.90;;;;;;6235604;22;20429;-83
2022/09/28 11:35:36;;;;;;;2.40;1.67;;;14.80;99.90;;;;;;6236734;23;20492;-81
2022/09/28 11:38:30;;;;;;;3.33;2.00;;;15.00;99.90;;;;;;6236414;22;20563;-82
2022/09/28 11:41:11;;;;;;;3.30;1.90;;;15.30;99.90;;;;;;6238965;23;20414;-81
2022/09/28 11:44:02;;;;;;;3.70;1.73;;;15.60;99.90;;;;;;6244477;22;20520;-73
2022/09/28 11:46:40;;;;;;;2.70;1.60;;;15.90;99.90;;;;;;6237112;22;20511;-81
2022/09/28 11:49:30;;;;;;;2.37;1.50;;;15.80;99.90;;;;;;6239348;23;20428;-80
2022/09/28 11:52:03;;;;;;;2.97;1.47;;;15.40;99.90;;;;;;6230075;22;20513;-80
2022/09/28 11:54:37;;;;;;;2.50;1.67;;;14.90;99.90;;;;;;6235714;23;20530;-81
2022/09/28 11:57:06;;;;;;;4.00;2.40;;;14.60;99.90;;;;;;6251262;22;20460;-80
2022/09/28 11:59:38;;;;;;;2.37;1.60;;;14.70;99.90;;;;;;6235882;22;20444;-80
2022/09/28 12:02:15;;;;;;;3.87;1.77;;;14.90;99.90;;;;;;6235023;22;20515;-81
2022/09/28 12:04:48;;;;;;;2.23;1.30;;;15.20;99.90;;;;;;6209671;23;20465;-81
2022/09/28 12:07:19;;;;;;;1.70;1.50;;;15.50;99.90;;;;;;6236126;23;20464;-80
2022/09/28 12:09:53;;;;;;;2.43;1.53;;;15.90;99.90;;;;;;6238189;22;20920;-81
2022/09/28 12:12:25;;;;;;;3.57;1.60;;;16.10;99.90;;;;;;6235660;23;20497;-78
2022/09/28 12:14:56;;;;;;;2.37;1.60;;;16.40;99.90;;;;;;6237695;22;20474;-84
2022/09/28 12:17:28;;;;;;;1.80;1.30;;;16.70;99.90;;;;;;6236810;22;20447;-78
2022/09/28 12:20:03;;;;;;;1.80;1.50;;;16.80;99.90;;;;;;6228761;22;20457;-78
2022/09/28 12:22:34;;;;;;;2.83;1.50;;;16.70;99.90;;;;;;6233077;23;20475;-78
2022/09/28 12:25:03;;;;;;;2.23;1.50;;;16.30;99.90;;;;;;6234245;22;20476;-78
2022/09/28 12:27:38;;;;;;;2.20;1.47;;;16.00;99.90;;;;;;6240276;22;20478;-78
2022/09/28 12:30:13;;;;;;;2.60;1.10;;;15.50;99.90;;;;;;6235980;23;20445;-78
2022/09/28 12:32:46;;;;;;;4.50;1.60;;;15.10;99.90;;;;;;6238362;22;20439;-79
2022/09/28 12:35:19;;;;;;;2.00;1.27;;;14.80;99.90;;;;;;6239506;22;20479;-79
2022/09/28 12:37:59;;;;;;;1.70;1.60;;;14.80;99.90;;;;;;6248217;22;20481;-79
2022/09/28 12:40:36;;;;;;;2.37;1.30;;;15.00;99.90;;;;;;6239123;23;20464;-79
2022/09/28 12:43:18;;;;;;;1.60;1.20;;;15.40;99.90;;;;;;6236446;22;20434;-79
2022/09/28 12:46:04;;;;;;;2.20;1.40;;;15.40;99.90;;;;;;6220952;22;21059;-80
2022/09/28 12:48:54;;;;;;;1.87;1.30;;;15.40;99.90;;;;;;6208436;23;20430;-80
2022/09/28 12:51:37;;;;;;;3.37;1.20;;;15.10;99.90;;;;;;6183874;23;20784;-79
2022/09/28 12:54:15;;;;;;;2.00;1.37;;;14.80;99.90;;;;;;6225225;22;20439;-79
2022/09/28 12:56:54;;;;;;;2.17;1.10;;;14.70;99.90;;;;;;6213341;22;20462;-79
2022/09/28 12:59:28;;;;;;;3.13;1.27;;;14.60;99.90;;;;;;6235902;22;20430;-79
2022/09/28 13:02:30;;;;;;;2.90;1.63;;;14.60;99.90;;;;;;6230358;22;20433;-79
2022/09/28 13:05:17;;;;;;;2.13;1.30;;;14.90;99.90;;;;;;6230311;22;20459;-79
2022/09/28 13:07:54;;;;;;;2.80;1.30;;;15.30;99.90;;;;;;6237323;23;20437;-79
2022/09/28 13:10:31;;;;;;;3.77;1.30;;;15.50;99.90;;;;;;6240061;23;20524;-80
2022/09/28 13:13:17;;;;;;;1.67;1.03;;;15.50;99.90;;;;;;6233533;22;20476;-79
2022/09/28 13:15:55;;;;;;;2.13;1.10;;;15.20;99.90;;;;;;6216358;22;21832;-79
2022/09/28 13:18:28;;;;;;;1.80;1.20;;;15.00;99.90;;;;;;6222204;22;20455;-80